sensor_id;sensor_type;location;lat;lon;timestamp;temperature;humidity
66343;DHT22;53144;51.524;5.080;2023-02-15T00:00:15;1.11;93.68
66343;DHT22;53144;51.524;5.080;2023-02-15T00:02:40;1.09;93.75
66343;DHT22;53144;51.524;5.080;2023-02-15T00:05:06;1.07;93.39
66343;DHT22;53144;51.524;5.080;2023-02-15T00:07:31;1.11;93.47
66343;DHT22;53144;51.524;5.080;2023-02-15T00:09:57;1.15;93.40
66343;DHT22;53144;51.524;5.080;2023-02-15T00:12:22;1.14;93.33
66343;DHT22;53144;51.524;5.080;2023-02-15T00:14:48;1.07;92.82
66343;DHT22;53144;51.524;5.080;2023-02-15T00:17:13;1.02;93.15
66343;DHT22;53144;51.524;5.080;2023-02-15T00:19:39;1.01;92.99
66343;DHT22;53144;51.524;5.080;2023-02-15T00:22:05;1.02;93.31
66343;DHT22;53144;51.524;5.080;2023-02-15T00:24:30;1.05;94.14
66343;DHT22;53144;51.524;5.080;2023-02-15T00:26:56;1.07;94.06
66343;DHT22;53144;51.524;5.080;2023-02-15T00:29:21;1.00;94.06
66343;DHT22;53144;51.524;5.080;2023-02-15T00:31:47;0.88;93.63
66343;DHT22;53144;51.524;5.080;2023-02-15T00:34:19;0.83;93.55
66343;DHT22;53144;51.524;5.080;2023-02-15T00:36:45;0.76;93.40
66343;DHT22;53144;51.524;5.080;2023-02-15T00:39:12;0.76;93.71
66343;DHT22;53144;51.524;5.080;2023-02-15T00:41:38;0.70;93.65
66343;DHT22;53144;51.524;5.080;2023-02-15T00:44:03;0.73;95.34
66343;DHT22;53144;51.524;5.080;2023-02-15T00:46:29;0.87;94.61
66343;DHT22;53144;51.524;5.080;2023-02-15T00:48:55;0.81;94.22
66343;DHT22;53144;51.524;5.080;2023-02-15T00:51:20;0.69;94.30
66343;DHT22;53144;51.524;5.080;2023-02-15T00:53:46;0.71;94.39
66343;DHT22;53144;51.524;5.080;2023-02-15T00:56:12;0.70;94.14
66343;DHT22;53144;51.524;5.080;2023-02-15T00:58:37;0.67;94.06
66343;DHT22;53144;51.524;5.080;2023-02-15T01:01:08;0.76;94.44
66343;DHT22;53144;51.524;5.080;2023-02-15T01:03:33;0.77;94.37
66343;DHT22;53144;51.524;5.080;2023-02-15T01:05:59;0.67;93.89
66343;DHT22;53144;51.524;5.080;2023-02-15T01:08:25;0.64;94.25
66343;DHT22;53144;51.524;5.080;2023-02-15T01:10:51;0.70;94.56
66343;DHT22;53144;51.524;5.080;2023-02-15T01:13:17;0.74;94.71
66343;DHT22;53144;51.524;5.080;2023-02-15T01:15:43;0.77;94.94
66343;DHT22;53144;51.524;5.080;2023-02-15T01:18:10;0.79;94.50
66343;DHT22;53144;51.524;5.080;2023-02-15T01:20:37;0.71;93.78
66343;DHT22;53144;51.524;5.080;2023-02-15T01:23:05;0.73;93.94
66343;DHT22;53144;51.524;5.080;2023-02-15T01:25:32;0.63;93.66
66343;DHT22;53144;51.524;5.080;2023-02-15T01:27:58;0.63;93.75
66343;DHT22;53144;51.524;5.080;2023-02-15T01:30:23;0.59;93.76
66343;DHT22;53144;51.524;5.080;2023-02-15T01:32:49;0.59;94.09
66343;DHT22;53144;51.524;5.080;2023-02-15T01:35:14;0.70;94.30
66343;DHT22;53144;51.524;5.080;2023-02-15T01:37:39;0.71;94.40
66343;DHT22;53144;51.524;5.080;2023-02-15T01:40:08;0.63;94.11
66343;DHT22;53144;51.524;5.080;2023-02-15T01:42:36;0.46;93.80
66343;DHT22;53144;51.524;5.080;2023-02-15T01:45:14;0.39;93.86
66343;DHT22;53144;51.524;5.080;2023-02-15T01:47:47;0.33;94.27
66343;DHT22;53144;51.524;5.080;2023-02-15T01:50:16;0.35;94.29
66343;DHT22;53144;51.524;5.080;2023-02-15T01:55:56;0.22;94.16
66343;DHT22;53144;51.524;5.080;2023-02-15T01:58:24;0.28;94.43
66343;DHT22;53144;51.524;5.080;2023-02-15T02:00:50;0.23;94.50
66343;DHT22;53144;51.524;5.080;2023-02-15T02:03:15;0.19;94.50
66343;DHT22;53144;51.524;5.080;2023-02-15T02:05:42;0.18;94.41
66343;DHT22;53144;51.524;5.080;2023-02-15T02:08:07;0.25;94.44
66343;DHT22;53144;51.524;5.080;2023-02-15T02:10:35;0.30;94.51
66343;DHT22;53144;51.524;5.080;2023-02-15T02:13:03;0.30;94.38
66343;DHT22;53144;51.524;5.080;2023-02-15T02:15:39;0.22;93.93
66343;DHT22;53144;51.524;5.080;2023-02-15T02:18:20;0.26;94.30
66343;DHT22;53144;51.524;5.080;2023-02-15T02:21:02;0.35;94.30
66343;DHT22;53144;51.524;5.080;2023-02-15T02:23:57;0.36;94.23
66343;DHT22;53144;51.524;5.080;2023-02-15T02:32:30;0.09;94.13
66343;DHT22;53144;51.524;5.080;2023-02-15T02:38:15;0.06;94.14
66343;DHT22;53144;51.524;5.080;2023-02-15T02:46:40;-0.05;94.33
66343;DHT22;53144;51.524;5.080;2023-02-15T02:49:09;-0.06;94.38
66343;DHT22;53144;51.524;5.080;2023-02-15T02:51:34;-0.02;94.53
66343;DHT22;53144;51.524;5.080;2023-02-15T02:54:04;-0.08;94.36
66343;DHT22;53144;51.524;5.080;2023-02-15T02:56:46;-0.15;94.40
66343;DHT22;53144;51.524;5.080;2023-02-15T02:59:22;-0.22;94.21
66343;DHT22;53144;51.524;5.080;2023-02-15T03:02:05;-0.22;94.54
66343;DHT22;53144;51.524;5.080;2023-02-15T03:04:41;-0.16;94.73
66343;DHT22;53144;51.524;5.080;2023-02-15T03:07:11;-0.12;94.72
66343;DHT22;53144;51.524;5.080;2023-02-15T03:09:40;-0.03;94.78
66343;DHT22;53144;51.524;5.080;2023-02-15T03:14:42;-0.08;94.61
66343;DHT22;53144;51.524;5.080;2023-02-15T03:17:10;-0.09;94.52
66343;DHT22;53144;51.524;5.080;2023-02-15T03:19:37;-0.08;94.55
66343;DHT22;53144;51.524;5.080;2023-02-15T03:22:18;-0.10;94.49
66343;DHT22;53144;51.524;5.080;2023-02-15T03:27:40;-0.10;95.10
66343;DHT22;53144;51.524;5.080;2023-02-15T03:30:08;-0.05;95.08
66343;DHT22;53144;51.524;5.080;2023-02-15T03:32:35;0.01;95.20
66343;DHT22;53144;51.524;5.080;2023-02-15T03:35:02;0.13;95.38
66343;DHT22;53144;51.524;5.080;2023-02-15T03:37:34;0.16;95.73
66343;DHT22;53144;51.524;5.080;2023-02-15T03:40:05;0.13;95.34
66343;DHT22;53144;51.524;5.080;2023-02-15T03:43:08;0.01;94.92
66343;DHT22;53144;51.524;5.080;2023-02-15T03:45:36;-0.02;94.90
66343;DHT22;53144;51.524;5.080;2023-02-15T03:48:04;-0.03;95.33
66343;DHT22;53144;51.524;5.080;2023-02-15T03:50:32;-0.10;94.86
66343;DHT22;53144;51.524;5.080;2023-02-15T03:53:20;-0.18;95.24
66343;DHT22;53144;51.524;5.080;2023-02-15T03:55:48;-0.12;95.49
66343;DHT22;53144;51.524;5.080;2023-02-15T03:58:13;-0.10;95.30
66343;DHT22;53144;51.524;5.080;2023-02-15T04:00:59;-0.16;94.87
66343;DHT22;53144;51.524;5.080;2023-02-15T04:06:19;-0.08;95.23
66343;DHT22;53144;51.524;5.080;2023-02-15T04:08:45;-0.09;95.34
66343;DHT22;53144;51.524;5.080;2023-02-15T04:11:30;-0.13;95.48
66343;DHT22;53144;51.524;5.080;2023-02-15T04:13:55;-0.19;95.46
66343;DHT22;53144;51.524;5.080;2023-02-15T04:16:25;-0.18;95.64
66343;DHT22;53144;51.524;5.080;2023-02-15T04:18:50;-0.15;95.69
66343;DHT22;53144;51.524;5.080;2023-02-15T04:21:34;-0.16;95.54
66343;DHT22;53144;51.524;5.080;2023-02-15T04:24:18;-0.16;95.77
66343;DHT22;53144;51.524;5.080;2023-02-15T04:27:03;-0.13;96.14
66343;DHT22;53144;51.524;5.080;2023-02-15T04:29:30;-0.28;96.32
66343;DHT22;53144;51.524;5.080;2023-02-15T04:31:56;-0.30;96.89
66343;DHT22;53144;51.524;5.080;2023-02-15T04:34:22;-0.41;96.44
66343;DHT22;53144;51.524;5.080;2023-02-15T04:36:47;-0.41;96.40
66343;DHT22;53144;51.524;5.080;2023-02-15T04:39:14;-0.39;96.36
66343;DHT22;53144;51.524;5.080;2023-02-15T04:41:40;-0.50;96.42
66343;DHT22;53144;51.524;5.080;2023-02-15T04:44:06;-0.53;96.30
66343;DHT22;53144;51.524;5.080;2023-02-15T04:46:32;-0.60;96.24
66343;DHT22;53144;51.524;5.080;2023-02-15T04:48:57;-0.59;96.51
66343;DHT22;53144;51.524;5.080;2023-02-15T04:51:22;-0.60;96.20
66343;DHT22;53144;51.524;5.080;2023-02-15T04:53:48;-0.66;96.48
66343;DHT22;53144;51.524;5.080;2023-02-15T04:56:14;-0.66;96.54
66343;DHT22;53144;51.524;5.080;2023-02-15T04:58:40;-0.66;96.67
66343;DHT22;53144;51.524;5.080;2023-02-15T05:01:07;-0.67;96.19
66343;DHT22;53144;51.524;5.080;2023-02-15T05:03:33;-0.64;96.08
66343;DHT22;53144;51.524;5.080;2023-02-15T05:05:58;-0.63;96.06
66343;DHT22;53144;51.524;5.080;2023-02-15T05:08:23;-0.60;96.32
66343;DHT22;53144;51.524;5.080;2023-02-15T05:10:49;-0.56;96.27
66343;DHT22;53144;51.524;5.080;2023-02-15T05:13:15;-0.54;96.09
66343;DHT22;53144;51.524;5.080;2023-02-15T05:15:40;-0.52;96.06
66343;DHT22;53144;51.524;5.080;2023-02-15T05:18:06;-0.52;95.78
66343;DHT22;53144;51.524;5.080;2023-02-15T05:20:32;-0.50;95.91
66343;DHT22;53144;51.524;5.080;2023-02-15T05:22:57;-0.61;95.10
66343;DHT22;53144;51.524;5.080;2023-02-15T05:25:23;-0.57;95.63
66343;DHT22;53144;51.524;5.080;2023-02-15T05:28:10;-0.57;95.54
66343;DHT22;53144;51.524;5.080;2023-02-15T05:33:24;-0.49;95.76
66343;DHT22;53144;51.524;5.080;2023-02-15T05:35:49;-0.47;95.63
66343;DHT22;53144;51.524;5.080;2023-02-15T05:38:14;-0.49;95.69
66343;DHT22;53144;51.524;5.080;2023-02-15T05:40:40;-0.52;96.13
66343;DHT22;53144;51.524;5.080;2023-02-15T05:43:05;-0.60;95.93
66343;DHT22;53144;51.524;5.080;2023-02-15T05:45:30;-0.56;95.99
66343;DHT22;53144;51.524;5.080;2023-02-15T05:47:56;-0.70;95.35
66343;DHT22;53144;51.524;5.080;2023-02-15T05:50:23;-0.73;95.63
66343;DHT22;53144;51.524;5.080;2023-02-15T05:52:48;-0.73;95.55
66343;DHT22;53144;51.524;5.080;2023-02-15T05:55:14;-0.70;95.76
66343;DHT22;53144;51.524;5.080;2023-02-15T05:57:39;-0.73;95.84
66343;DHT22;53144;51.524;5.080;2023-02-15T06:00:05;-0.70;95.82
66343;DHT22;53144;51.524;5.080;2023-02-15T06:02:34;-0.74;95.72
66343;DHT22;53144;51.524;5.080;2023-02-15T06:05:00;-0.74;95.77
66343;DHT22;53144;51.524;5.080;2023-02-15T06:07:25;-0.76;95.61
66343;DHT22;53144;51.524;5.080;2023-02-15T06:09:51;-0.70;95.96
66343;DHT22;53144;51.524;5.080;2023-02-15T06:12:16;-0.68;95.97
66343;DHT22;53144;51.524;5.080;2023-02-15T06:14:41;-0.66;95.92
66343;DHT22;53144;51.524;5.080;2023-02-15T06:17:07;-0.63;96.15
66343;DHT22;53144;51.524;5.080;2023-02-15T06:19:32;-0.63;95.96
66343;DHT22;53144;51.524;5.080;2023-02-15T06:21:58;-0.63;95.66
66343;DHT22;53144;51.524;5.080;2023-02-15T06:24:23;-0.71;95.07
66343;DHT22;53144;51.524;5.080;2023-02-15T06:26:48;-0.71;95.39
66343;DHT22;53144;51.524;5.080;2023-02-15T06:29:14;-0.71;95.48
66343;DHT22;53144;51.524;5.080;2023-02-15T06:31:39;-0.71;95.81
66343;DHT22;53144;51.524;5.080;2023-02-15T06:34:04;-0.70;96.10
66343;DHT22;53144;51.524;5.080;2023-02-15T06:36:31;-0.63;96.34
66343;DHT22;53144;51.524;5.080;2023-02-15T06:38:57;-0.60;96.71
66343;DHT22;53144;51.524;5.080;2023-02-15T06:41:22;-0.63;96.07
66343;DHT22;53144;51.524;5.080;2023-02-15T06:43:48;-0.63;95.89
66343;DHT22;53144;51.524;5.080;2023-02-15T06:46:13;-0.66;95.93
66343;DHT22;53144;51.524;5.080;2023-02-15T06:48:39;-0.64;96.43
66343;DHT22;53144;51.524;5.080;2023-02-15T06:51:04;-0.66;96.07
66343;DHT22;53144;51.524;5.080;2023-02-15T06:53:29;-0.61;96.40
66343;DHT22;53144;51.524;5.080;2023-02-15T06:56:05;-0.63;96.37
66343;DHT22;53144;51.524;5.080;2023-02-15T06:58:32;-0.57;96.59
66343;DHT22;53144;51.524;5.080;2023-02-15T07:00:58;-0.57;96.84
66343;DHT22;53144;51.524;5.080;2023-02-15T07:03:24;-0.57;96.58
66343;DHT22;53144;51.524;5.080;2023-02-15T07:05:54;-0.54;96.68
66343;DHT22;53144;51.524;5.080;2023-02-15T07:08:19;-0.49;96.76
66343;DHT22;53144;51.524;5.080;2023-02-15T07:10:46;-0.53;96.31
66343;DHT22;53144;51.524;5.080;2023-02-15T07:13:11;-0.47;96.22
66343;DHT22;53144;51.524;5.080;2023-02-15T07:15:36;-0.49;96.35
66343;DHT22;53144;51.524;5.080;2023-02-15T07:18:02;-0.43;96.37
66343;DHT22;53144;51.524;5.080;2023-02-15T07:20:27;-0.36;96.36
66343;DHT22;53144;51.524;5.080;2023-02-15T07:22:54;-0.33;96.51
66343;DHT22;53144;51.524;5.080;2023-02-15T07:25:19;-0.37;96.19
66343;DHT22;53144;51.524;5.080;2023-02-15T07:27:45;-0.32;96.41
66343;DHT22;53144;51.524;5.080;2023-02-15T07:30:13;-0.25;96.81
66343;DHT22;53144;51.524;5.080;2023-02-15T07:32:38;-0.18;96.84
66343;DHT22;53144;51.524;5.080;2023-02-15T07:35:23;-0.18;96.64
66343;DHT22;53144;51.524;5.080;2023-02-15T07:37:48;-0.13;96.65
66343;DHT22;53144;51.524;5.080;2023-02-15T07:40:14;-0.13;96.77
66343;DHT22;53144;51.524;5.080;2023-02-15T07:42:39;-0.12;97.05
66343;DHT22;53144;51.524;5.080;2023-02-15T07:45:04;-0.06;97.12
66343;DHT22;53144;51.524;5.080;2023-02-15T07:47:30;-0.05;97.12
66343;DHT22;53144;51.524;5.080;2023-02-15T07:49:55;0.02;97.22
66343;DHT22;53144;51.524;5.080;2023-02-15T07:52:20;0.11;97.07
66343;DHT22;53144;51.524;5.080;2023-02-15T07:54:46;0.16;97.16
66343;DHT22;53144;51.524;5.080;2023-02-15T07:57:11;0.22;96.87
66343;DHT22;53144;51.524;5.080;2023-02-15T07:59:37;0.29;96.72
66343;DHT22;53144;51.524;5.080;2023-02-15T08:02:02;0.36;96.66
66343;DHT22;53144;51.524;5.080;2023-02-15T08:04:27;0.42;96.76
66343;DHT22;53144;51.524;5.080;2023-02-15T08:06:53;0.43;96.89
66343;DHT22;53144;51.524;5.080;2023-02-15T08:09:19;0.52;96.92
66343;DHT22;53144;51.524;5.080;2023-02-15T08:11:46;0.61;96.95
66343;DHT22;53144;51.524;5.080;2023-02-15T08:14:19;0.70;96.86
66343;DHT22;53144;51.524;5.080;2023-02-15T08:16:53;0.76;96.65
66343;DHT22;53144;51.524;5.080;2023-02-15T08:21:52;1.00;96.67
66343;DHT22;53144;51.524;5.080;2023-02-15T08:24:20;1.09;96.47
66343;DHT22;53144;51.524;5.080;2023-02-15T08:26:46;1.19;96.04
66343;DHT22;53144;51.524;5.080;2023-02-15T08:29:14;1.22;96.22
66343;DHT22;53144;51.524;5.080;2023-02-15T08:31:39;1.38;96.48
66343;DHT22;53144;51.524;5.080;2023-02-15T08:34:07;1.45;96.19
66343;DHT22;53144;51.524;5.080;2023-02-15T08:36:33;1.59;96.22
66343;DHT22;53144;51.524;5.080;2023-02-15T08:38:59;1.66;95.75
66343;DHT22;53144;51.524;5.080;2023-02-15T08:41:27;1.67;95.89
66343;DHT22;53144;51.524;5.080;2023-02-15T08:43:55;1.70;95.87
66343;DHT22;53144;51.524;5.080;2023-02-15T08:46:23;1.70;95.40
66343;DHT22;53144;51.524;5.080;2023-02-15T08:48:49;1.80;95.92
66343;DHT22;53144;51.524;5.080;2023-02-15T08:51:20;1.89;95.90
66343;DHT22;53144;51.524;5.080;2023-02-15T08:53:49;1.97;95.99
66343;DHT22;53144;51.524;5.080;2023-02-15T08:56:16;2.06;96.14
66343;DHT22;53144;51.524;5.080;2023-02-15T08:58:42;2.14;95.67
66343;DHT22;53144;51.524;5.080;2023-02-15T09:01:16;2.21;95.60
66343;DHT22;53144;51.524;5.080;2023-02-15T09:03:44;2.38;95.64
66343;DHT22;53144;51.524;5.080;2023-02-15T09:06:11;2.49;95.59
66343;DHT22;53144;51.524;5.080;2023-02-15T09:08:36;2.63;95.61
66343;DHT22;53144;51.524;5.080;2023-02-15T09:11:11;2.77;95.62
66343;DHT22;53144;51.524;5.080;2023-02-15T09:13:38;2.90;95.62
66343;DHT22;53144;51.524;5.080;2023-02-15T09:16:06;3.04;95.70
66343;DHT22;53144;51.524;5.080;2023-02-15T09:18:34;3.23;95.66
66343;DHT22;53144;51.524;5.080;2023-02-15T09:23:31;3.66;94.82
66343;DHT22;53144;51.524;5.080;2023-02-15T09:25:56;3.87;94.61
66343;DHT22;53144;51.524;5.080;2023-02-15T09:28:21;4.11;94.49
66343;DHT22;53144;51.524;5.080;2023-02-15T09:30:47;4.38;94.07
66343;DHT22;53144;51.524;5.080;2023-02-15T09:33:12;4.58;93.49
66343;DHT22;53144;51.524;5.080;2023-02-15T09:35:37;4.79;92.45
66343;DHT22;53144;51.524;5.080;2023-02-15T09:38:03;4.93;91.90
66343;DHT22;53144;51.524;5.080;2023-02-15T09:40:31;5.19;91.35
66343;DHT22;53144;51.524;5.080;2023-02-15T09:43:18;5.46;90.44
66343;DHT22;53144;51.524;5.080;2023-02-15T09:45:54;5.70;89.97
66343;DHT22;53144;51.524;5.080;2023-02-15T09:48:33;6.04;89.50
66343;DHT22;53144;51.524;5.080;2023-02-15T09:56:48;7.04;86.19
66343;DHT22;53144;51.524;5.080;2023-02-15T09:59:29;7.45;84.31
66343;DHT22;53144;51.524;5.080;2023-02-15T10:07:22;8.31;79.75
66343;DHT22;53144;51.524;5.080;2023-02-15T10:15:56;9.00;77.61
66343;DHT22;53144;51.524;5.080;2023-02-15T10:24:30;10.09;74.60
66343;DHT22;53144;51.524;5.080;2023-02-15T10:27:12;10.17;73.78
66343;DHT22;53144;51.524;5.080;2023-02-15T10:32:26;10.50;70.86
66343;DHT22;53144;51.524;5.080;2023-02-15T10:37:32;10.95;70.51
66343;DHT22;53144;51.524;5.080;2023-02-15T10:42:47;11.63;65.87
66343;DHT22;53144;51.524;5.080;2023-02-15T10:45:29;11.81;67.03
66343;DHT22;53144;51.524;5.080;2023-02-15T10:50:59;12.05;65.23
66343;DHT22;53144;51.524;5.080;2023-02-15T10:56:24;12.35;63.34
66343;DHT22;53144;51.524;5.080;2023-02-15T11:01:39;11.93;63.93
66343;DHT22;53144;51.524;5.080;2023-02-15T11:06:50;12.38;64.97
66343;DHT22;53144;51.524;5.080;2023-02-15T11:09:18;12.70;63.76
66343;DHT22;53144;51.524;5.080;2023-02-15T11:11:49;13.22;61.96
66343;DHT22;53144;51.524;5.080;2023-02-15T11:14:23;13.01;62.30
66343;DHT22;53144;51.524;5.080;2023-02-15T11:16:55;12.83;60.39
66343;DHT22;53144;51.524;5.080;2023-02-15T11:19:34;12.84;60.46
66343;DHT22;53144;51.524;5.080;2023-02-15T11:22:05;12.56;61.33
66343;DHT22;53144;51.524;5.080;2023-02-15T11:24:36;12.53;61.02
66343;DHT22;53144;51.524;5.080;2023-02-15T11:32:23;13.34;59.31
66343;DHT22;53144;51.524;5.080;2023-02-15T11:37:46;14.21;57.51
66343;DHT22;53144;51.524;5.080;2023-02-15T11:40:22;14.09;57.18
66343;DHT22;53144;51.524;5.080;2023-02-15T11:42:52;13.93;58.71
66343;DHT22;53144;51.524;5.080;2023-02-15T11:47:47;14.45;58.50
66343;DHT22;53144;51.524;5.080;2023-02-15T11:50:15;15.05;55.94
66343;DHT22;53144;51.524;5.080;2023-02-15T11:52:43;15.26;54.56
66343;DHT22;53144;51.524;5.080;2023-02-15T11:55:14;15.05;55.05
66343;DHT22;53144;51.524;5.080;2023-02-15T11:57:44;14.91;54.60
66343;DHT22;53144;51.524;5.080;2023-02-15T12:03:03;14.40;56.39
66343;DHT22;53144;51.524;5.080;2023-02-15T12:05:31;14.85;54.63
66343;DHT22;53144;51.524;5.080;2023-02-15T12:08:02;14.92;55.03
66343;DHT22;53144;51.524;5.080;2023-02-15T12:10:33;14.09;57.69
66343;DHT22;53144;51.524;5.080;2023-02-15T12:13:21;13.28;59.67
66343;DHT22;53144;51.524;5.080;2023-02-15T12:15:50;12.93;61.66
66343;DHT22;53144;51.524;5.080;2023-02-15T12:18:38;12.64;60.88
66343;DHT22;53144;51.524;5.080;2023-02-15T12:21:10;12.55;62.04
66343;DHT22;53144;51.524;5.080;2023-02-15T12:24:01;12.33;61.81
66343;DHT22;53144;51.524;5.080;2023-02-15T12:26:31;12.25;63.36
66343;DHT22;53144;51.524;5.080;2023-02-15T12:28:59;12.21;64.26
66343;DHT22;53144;51.524;5.080;2023-02-15T12:31:36;12.12;63.63
66343;DHT22;53144;51.524;5.080;2023-02-15T12:34:09;12.25;64.78
66343;DHT22;53144;51.524;5.080;2023-02-15T12:36:43;12.38;64.70
66343;DHT22;53144;51.524;5.080;2023-02-15T12:41:36;12.52;63.94
66343;DHT22;53144;51.524;5.080;2023-02-15T12:44:05;12.56;63.08
66343;DHT22;53144;51.524;5.080;2023-02-15T12:46:31;12.35;64.17
66343;DHT22;53144;51.524;5.080;2023-02-15T12:51:43;12.39;63.38
66343;DHT22;53144;51.524;5.080;2023-02-15T12:56:53;12.64;64.40
66343;DHT22;53144;51.524;5.080;2023-02-15T12:59:18;12.86;62.68
66343;DHT22;53144;51.524;5.080;2023-02-15T13:01:48;13.25;62.13
66343;DHT22;53144;51.524;5.080;2023-02-15T13:04:24;13.62;60.62
66343;DHT22;53144;51.524;5.080;2023-02-15T13:06:52;13.86;59.41
66343;DHT22;53144;51.524;5.080;2023-02-15T13:12:18;14.03;58.18
66343;DHT22;53144;51.524;5.080;2023-02-15T13:14:46;13.98;59.47
66343;DHT22;53144;51.524;5.080;2023-02-15T13:17:13;14.34;57.97
66343;DHT22;53144;51.524;5.080;2023-02-15T13:19:46;14.38;58.45
66343;DHT22;53144;51.524;5.080;2023-02-15T13:22:45;14.10;60.23
66343;DHT22;53144;51.524;5.080;2023-02-15T13:25:17;13.78;61.68
66343;DHT22;53144;51.524;5.080;2023-02-15T13:27:46;13.59;59.75
66343;DHT22;53144;51.524;5.080;2023-02-15T13:30:35;13.57;60.13
66343;DHT22;53144;51.524;5.080;2023-02-15T13:33:04;13.47;61.27
66343;DHT22;53144;51.524;5.080;2023-02-15T13:35:55;13.52;60.17
66343;DHT22;53144;51.524;5.080;2023-02-15T13:41:15;13.61;61.27
66343;DHT22;53144;51.524;5.080;2023-02-15T13:43:54;13.52;61.01
66343;DHT22;53144;51.524;5.080;2023-02-15T13:52:19;13.83;60.12
66343;DHT22;53144;51.524;5.080;2023-02-15T13:54:57;13.66;61.34
66343;DHT22;53144;51.524;5.080;2023-02-15T14:03:33;13.54;61.81
66343;DHT22;53144;51.524;5.080;2023-02-15T14:14:27;12.63;64.13
66343;DHT22;53144;51.524;5.080;2023-02-15T14:19:50;12.59;64.81
66343;DHT22;53144;51.524;5.080;2023-02-15T14:22:29;12.64;63.99
66343;DHT22;53144;51.524;5.080;2023-02-15T14:28:08;12.46;65.08
66343;DHT22;53144;51.524;5.080;2023-02-15T14:30:40;12.55;64.89
66343;DHT22;53144;51.524;5.080;2023-02-15T14:33:28;12.56;64.97
66343;DHT22;53144;51.524;5.080;2023-02-15T14:48:57;12.57;64.02
66343;DHT22;53144;51.524;5.080;2023-02-15T14:56:45;12.57;63.98
66343;DHT22;53144;51.524;5.080;2023-02-15T14:59:20;12.57;64.28
66343;DHT22;53144;51.524;5.080;2023-02-15T15:02:13;12.52;63.88
66343;DHT22;53144;51.524;5.080;2023-02-15T15:04:43;12.52;65.53
66343;DHT22;53144;51.524;5.080;2023-02-15T15:07:20;12.45;64.53
66343;DHT22;53144;51.524;5.080;2023-02-15T15:09:48;12.50;64.98
66343;DHT22;53144;51.524;5.080;2023-02-15T15:14:51;12.28;67.07
66343;DHT22;53144;51.524;5.080;2023-02-15T15:20:11;12.36;64.10
66343;DHT22;53144;51.524;5.080;2023-02-15T15:22:39;12.31;65.53
66343;DHT22;53144;51.524;5.080;2023-02-15T15:27:49;12.17;65.56
66343;DHT22;53144;51.524;5.080;2023-02-15T15:35:51;11.93;65.79
66343;DHT22;53144;51.524;5.080;2023-02-15T15:41:40;11.83;67.22
66343;DHT22;53144;51.524;5.080;2023-02-15T15:49:55;11.63;67.73
66343;DHT22;53144;51.524;5.080;2023-02-15T15:52:21;11.56;69.03
66343;DHT22;53144;51.524;5.080;2023-02-15T15:54:48;11.56;69.15
66343;DHT22;53144;51.524;5.080;2023-02-15T15:57:30;11.52;68.98
66343;DHT22;53144;51.524;5.080;2023-02-15T15:59:57;11.47;69.37
66343;DHT22;53144;51.524;5.080;2023-02-15T16:02:26;11.42;69.25
66343;DHT22;53144;51.524;5.080;2023-02-15T16:04:52;11.39;69.30
66343;DHT22;53144;51.524;5.080;2023-02-15T16:10:07;11.27;69.87
66343;DHT22;53144;51.524;5.080;2023-02-15T16:12:34;11.14;69.94
66343;DHT22;53144;51.524;5.080;2023-02-15T16:15:20;11.01;70.71
66343;DHT22;53144;51.524;5.080;2023-02-15T16:17:51;10.91;70.71
66343;DHT22;53144;51.524;5.080;2023-02-15T16:20:23;10.79;71.73
66343;DHT22;53144;51.524;5.080;2023-02-15T16:28:12;10.63;71.53
66343;DHT22;53144;51.524;5.080;2023-02-15T16:30:39;10.60;72.23
66343;DHT22;53144;51.524;5.080;2023-02-15T16:33:15;10.51;72.75
66343;DHT22;53144;51.524;5.080;2023-02-15T16:35:56;10.36;72.80
66343;DHT22;53144;51.524;5.080;2023-02-15T16:41:11;10.23;72.76
66343;DHT22;53144;51.524;5.080;2023-02-15T16:43:40;10.23;71.94
66343;DHT22;53144;51.524;5.080;2023-02-15T16:46:13;10.13;72.84
66343;DHT22;53144;51.524;5.080;2023-02-15T16:48:43;10.05;72.59
66343;DHT22;53144;51.524;5.080;2023-02-15T16:51:09;10.02;72.58
66343;DHT22;53144;51.524;5.080;2023-02-15T16:53:35;9.93;72.72
66343;DHT22;53144;51.524;5.080;2023-02-15T16:56:04;9.89;72.53
66343;DHT22;53144;51.524;5.080;2023-02-15T16:58:38;9.77;73.34
66343;DHT22;53144;51.524;5.080;2023-02-15T17:01:07;9.67;73.75
66343;DHT22;53144;51.524;5.080;2023-02-15T17:03:34;9.57;73.95
66343;DHT22;53144;51.524;5.080;2023-02-15T17:06:01;9.45;73.95
66343;DHT22;53144;51.524;5.080;2023-02-15T17:08:41;9.41;74.23
66343;DHT22;53144;51.524;5.080;2023-02-15T17:11:19;9.28;74.31
66343;DHT22;53144;51.524;5.080;2023-02-15T17:19:08;8.96;75.38
66343;DHT22;53144;51.524;5.080;2023-02-15T17:21:43;8.83;75.68
66343;DHT22;53144;51.524;5.080;2023-02-15T17:27:01;8.62;76.17
66343;DHT22;53144;51.524;5.080;2023-02-15T17:29:35;8.58;76.54
66343;DHT22;53144;51.524;5.080;2023-02-15T17:32:01;8.52;76.97
66343;DHT22;53144;51.524;5.080;2023-02-15T17:37:31;8.21;77.70
66343;DHT22;53144;51.524;5.080;2023-02-15T17:39:58;8.07;78.18
66343;DHT22;53144;51.524;5.080;2023-02-15T17:42:25;8.00;78.39
66343;DHT22;53144;51.524;5.080;2023-02-15T17:44:50;8.00;77.94
66343;DHT22;53144;51.524;5.080;2023-02-15T17:47:16;7.81;78.61
66343;DHT22;53144;51.524;5.080;2023-02-15T17:49:43;7.66;79.15
66343;DHT22;53144;51.524;5.080;2023-02-15T17:52:11;7.53;79.49
66343;DHT22;53144;51.524;5.080;2023-02-15T17:54:36;7.38;80.08
66343;DHT22;53144;51.524;5.080;2023-02-15T17:57:20;7.22;80.78
66343;DHT22;53144;51.524;5.080;2023-02-15T17:59:46;7.09;81.39
66343;DHT22;53144;51.524;5.080;2023-02-15T18:02:33;7.04;81.64
66343;DHT22;53144;51.524;5.080;2023-02-15T18:05:18;6.95;81.98
66343;DHT22;53144;51.524;5.080;2023-02-15T18:08:02;6.97;81.63
66343;DHT22;53144;51.524;5.080;2023-02-15T18:10:46;6.92;82.09
66343;DHT22;53144;51.524;5.080;2023-02-15T18:13:30;6.92;82.02
66343;DHT22;53144;51.524;5.080;2023-02-15T18:15:55;6.98;81.88
66343;DHT22;53144;51.524;5.080;2023-02-15T18:18:21;7.00;81.93
66343;DHT22;53144;51.524;5.080;2023-02-15T18:20:48;6.97;81.84
66343;DHT22;53144;51.524;5.080;2023-02-15T18:23:14;7.00;81.91
66343;DHT22;53144;51.524;5.080;2023-02-15T18:25:39;6.98;81.99
66343;DHT22;53144;51.524;5.080;2023-02-15T18:28:08;6.98;81.75
66343;DHT22;53144;51.524;5.080;2023-02-15T18:30:39;6.91;81.93
66343;DHT22;53144;51.524;5.080;2023-02-15T18:33:35;6.80;82.36
66343;DHT22;53144;51.524;5.080;2023-02-15T18:36:03;6.83;82.40
66343;DHT22;53144;51.524;5.080;2023-02-15T18:38:29;6.81;82.19
66343;DHT22;53144;51.524;5.080;2023-02-15T18:40:54;6.71;82.32
66343;DHT22;53144;51.524;5.080;2023-02-15T18:43:20;6.57;82.88
66343;DHT22;53144;51.524;5.080;2023-02-15T18:45:45;6.46;83.13
66343;DHT22;53144;51.524;5.080;2023-02-15T18:48:10;6.39;83.32
66343;DHT22;53144;51.524;5.080;2023-02-15T18:50:37;6.30;83.68
66343;DHT22;53144;51.524;5.080;2023-02-15T18:53:05;6.21;84.16
66343;DHT22;53144;51.524;5.080;2023-02-15T18:55:31;6.18;84.04
66343;DHT22;53144;51.524;5.080;2023-02-15T18:57:58;6.09;84.41
66343;DHT22;53144;51.524;5.080;2023-02-15T19:00:27;6.15;84.35
66343;DHT22;53144;51.524;5.080;2023-02-15T19:02:53;6.22;84.30
66343;DHT22;53144;51.524;5.080;2023-02-15T19:05:20;6.21;84.18